Time;durP1;ratioP1;P1;durP2;ratioP2;P2;SDS_P1;SDS_P2;PMS_P1;PMS_P2;Temp;Humidity;BMP_temperature;BMP_pressure;BME280_temperature;BME280_humidity;BME280_pressure;Samples;Min_cycle;Max_cycle;Signal;HPM_P1;HPM_P2
2023/03/06 00:01:08;;;;;;;;;;;;;;;26.28;38.15;93370.41;4895085;29;10127;-54
2023/03/06 00:03:36;;;;;;;;;;;;;;;26.27;37.85;93371.72;4889485;29;9050;-54
2023/03/06 00:06:11;;;;;;;;;;;;;;;26.24;37.62;93370.03;4892548;29;7268;-55
2023/03/06 00:08:38;;;;;;;;;;;;;;;26.22;37.89;93364.31;4898400;29;7227;-54
2023/03/06 00:11:14;;;;;;;;;;;;;;;26.21;37.68;93362.84;4882380;29;7112;-54
2023/03/06 00:13:47;;;;;;;;;;;;;;;26.19;38.13;93368.88;4915604;29;9434;-54
2023/03/06 00:16:13;;;;;;;;;;;;;;;26.19;37.79;93368.88;4930477;29;9091;-54
2023/03/06 00:18:40;;;;;;;;;;;;;;;26.15;38.32;93366.47;4929995;29;7053;-54
2023/03/06 00:21:09;;;;;;;;;;;;;;;26.20;37.72;93366.88;4961614;28;7067;-55
2023/03/06 00:23:38;;;;;;;;;;;;;;;26.16;37.87;93356.91;4969128;28;7163;-54
2023/03/06 00:26:07;;;;;;;;;;;;;;;26.16;37.87;93347.94;4970175;28;7007;-54
2023/03/06 00:28:36;;;;;;;;;;;;;;;26.14;38.14;93359.47;4998536;28;8972;-54
2023/03/06 00:31:05;;;;;;;;;;;;;;;26.11;38.27;93348.78;4972528;28;7314;-53
2023/03/06 00:33:31;;;;;;;;;;;;;;;26.12;38.56;93347.53;4961123;28;7860;-54
2023/03/06 00:35:58;;;;;;;;;;;;;;;26.10;38.18;93345.28;4971750;28;9535;-54
2023/03/06 00:38:27;;;;;;;;;;;;;;;26.11;38.40;93346.78;4980279;28;7263;-54
2023/03/06 00:40:57;;;;;;;;;;;;;;;26.10;38.32;93342.53;4972479;28;8749;-54
2023/03/06 00:43:25;;;;;;;;;;;;;;;26.09;38.24;93340.34;4963642;28;7415;-54
2023/03/06 00:45:51;;;;;;;;;;;;;;;26.08;38.21;93341.56;4964868;28;7252;-54
2023/03/06 00:48:19;;;;;;;;;;;;;;;26.11;38.35;93340.53;4955931;28;9057;-54
2023/03/06 00:50:46;;;;;;;;;;;;;;;26.08;38.43;93334.06;4968882;28;9047;-54
2023/03/06 00:53:13;;;;;;;;;;;;;;;26.07;38.33;93340.09;4979676;28;7272;-54
2023/03/06 00:55:50;;;;;;;;;;;;;;;26.07;38.28;93327.06;4964617;28;9033;-54
2023/03/06 00:58:22;;;;;;;;;;;;;;;26.06;37.89;93330.34;5005476;28;9048;-54
2023/03/06 01:01:10;;;;;;;;;;;;;;;26.06;37.71;93322.81;4968904;28;9029;-54
2023/03/06 01:03:38;;;;;;;;;;;;;;;26.04;38.10;93319.88;5001232;28;9385;-54
2023/03/06 01:06:04;;;;;;;;;;;;;;;26.03;38.73;93312.16;4965395;28;8743;-54
2023/03/06 01:08:30;;;;;;;;;;;;;;;26.01;38.24;93315.44;4996756;28;9138;-54
2023/03/06 01:10:56;;;;;;;;;;;;;;;26.00;37.98;93305.69;4968607;28;7608;-54
2023/03/06 01:13:22;;;;;;;;;;;;;;;25.99;38.83;93298.69;4961805;28;9073;-55
2023/03/06 01:15:48;;;;;;;;;;;;;;;26.00;38.80;93302.94;4969037;28;9426;-54
2023/03/06 01:18:14;;;;;;;;;;;;;;;26.00;37.90;93302.19;4961505;28;9205;-55
2023/03/06 01:20:41;;;;;;;;;;;;;;;25.98;38.76;93291.72;4966132;28;8269;-54
2023/03/06 01:23:14;;;;;;;;;;;;;;;25.98;37.92;93288.97;4963521;28;8790;-54
2023/03/06 01:25:44;;;;;;;;;;;;;;;25.97;38.56;93281.22;4956193;28;9070;-54
2023/03/06 01:28:10;;;;;;;;;;;;;;;25.98;38.39;93282.72;4962141;28;8723;-54
2023/03/06 01:30:36;;;;;;;;;;;;;;;25.99;38.19;93284.91;4974349;28;7472;-54
2023/03/06 01:33:03;;;;;;;;;;;;;;;25.99;38.01;93279.41;4970610;28;7280;-54
2023/03/06 01:35:29;;;;;;;;;;;;;;;26.00;38.45;93272.63;4965774;28;9166;-54
2023/03/06 01:37:55;;;;;;;;;;;;;;;26.00;38.71;93263.63;4991913;28;7584;-54
2023/03/06 01:40:24;;;;;;;;;;;;;;;25.99;37.83;93254.63;4968139;28;7331;-54
2023/03/06 01:42:50;;;;;;;;;;;;;;;25.98;38.69;93253.16;4970271;28;7284;-55
2023/03/06 01:45:16;;;;;;;;;;;;;;;26.00;37.78;93250.59;4971254;28;8944;-53
2023/03/06 01:47:43;;;;;;;;;;;;;;;25.98;37.88;93250.41;4978686;28;7272;-55
2023/03/06 01:50:11;;;;;;;;;;;;;;;25.95;38.22;93245.97;4967996;28;8789;-54
2023/03/06 01:52:49;;;;;;;;;;;;;;;25.94;38.52;93243.75;4993378;28;6988;-54
2023/03/06 01:55:25;;;;;;;;;;;;;;;25.96;38.02;93241.19;4962993;28;9099;-54
2023/03/06 01:57:57;;;;;;;;;;;;;;;25.94;38.12;93233.47;4963490;28;7160;-54
2023/03/06 02:00:27;;;;;;;;;;;;;;;25.93;38.08;93220.22;4960028;28;9130;-53
2023/03/06 02:02:59;;;;;;;;;;;;;;;25.93;38.12;93226.47;4983968;28;9303;-54
2023/03/06 02:05:25;;;;;;;;;;;;;;;25.92;38.29;93218.75;4962221;28;6872;-54
2023/03/06 02:07:53;;;;;;;;;;;;;;;25.93;37.93;93220.97;4966778;28;7506;-54
2023/03/06 02:10:19;;;;;;;;;;;;;;;25.92;38.71;93218.75;4961283;28;7254;-54
2023/03/06 02:12:48;;;;;;;;;;;;;;;25.92;38.29;93210.50;4968481;28;6923;-52
2023/03/06 02:15:21;;;;;;;;;;;;;;;25.92;38.46;93211.25;4966660;28;7867;-54
2023/03/06 02:17:51;;;;;;;;;;;;;;;25.93;38.98;93215.47;4955824;28;7055;-54
2023/03/06 02:20:33;;;;;;;;;;;;;;;25.95;38.28;93206.63;4973226;28;7392;-54
2023/03/06 02:23:21;;;;;;;;;;;;;;;25.92;38.96;93200.22;4972674;28;7728;-54
2023/03/06 02:25:51;;;;;;;;;;;;;;;25.93;38.11;93195.44;4973083;28;9090;-53
2023/03/06 02:28:22;;;;;;;;;;;;;;;25.93;38.56;93198.19;4971150;28;9411;-51
2023/03/06 02:30:51;;;;;;;;;;;;;;;25.90;38.21;93194.50;4967442;28;7464;-54
2023/03/06 02:33:22;;;;;;;;;;;;;;;25.87;38.70;93184.56;4970788;28;7383;-55
2023/03/06 02:36:15;;;;;;;;;;;;;;;25.91;38.52;93195.97;4968103;28;7339;-55
2023/03/06 02:38:49;;;;;;;;;;;;;;;25.92;38.36;93200.22;4988259;28;10830;-55
2023/03/06 02:41:17;;;;;;;;;;;;;;;25.91;38.10;93187.72;4971193;28;8810;-55
2023/03/06 02:43:47;;;;;;;;;;;;;;;25.89;38.18;93190.28;4964358;28;7269;-56
2023/03/06 02:46:25;;;;;;;;;;;;;;;25.91;38.11;93178.72;4977519;28;8200;-55
2023/03/06 02:48:52;;;;;;;;;;;;;;;25.91;38.19;93170.44;4968132;28;8928;-55
2023/03/06 02:51:20;;;;;;;;;;;;;;;25.89;38.61;93173.75;4989698;28;8727;-55
2023/03/06 02:53:49;;;;;;;;;;;;;;;25.88;38.90;93169.50;4968963;28;7136;-62
2023/03/06 02:56:16;;;;;;;;;;;;;;;25.89;38.47;93167.50;4989796;28;7013;-62
2023/03/06 02:58:42;;;;;;;;;;;;;;;25.88;38.87;93168.78;4998871;28;7023;-61
2023/03/06 03:01:10;;;;;;;;;;;;;;;25.86;38.89;93161.03;4964640;28;8866;-62
2023/03/06 03:03:37;;;;;;;;;;;;;;;25.86;38.77;93163.09;4966503;28;9105;-62
2023/03/06 03:06:05;;;;;;;;;;;;;;;25.84;38.77;93154.59;4956171;28;6991;-62
2023/03/06 03:08:34;;;;;;;;;;;;;;;25.85;38.05;93162.34;4969675;28;9210;-62
2023/03/06 03:11:01;;;;;;;;;;;;;;;25.83;39.01;93155.88;4970238;28;7048;-61
2023/03/06 03:13:44;;;;;;;;;;;;;;;25.83;38.09;93156.63;4995224;28;7260;-62
2023/03/06 03:16:16;;;;;;;;;;;;;;;25.83;38.77;93161.41;4963031;28;7270;-62
2023/03/06 03:18:43;;;;;;;;;;;;;;;25.84;38.55;93163.59;4968118;28;9441;-62
2023/03/06 03:21:13;;;;;;;;;;;;;;;25.83;38.26;93159.38;4985173;28;9256;-62
2023/03/06 03:23:39;;;;;;;;;;;;;;;25.82;38.74;93166.16;4953620;28;7277;-62
2023/03/06 03:26:07;;;;;;;;;;;;;;;25.81;38.28;93153.69;4991221;28;7105;-62
2023/03/06 03:28:33;;;;;;;;;;;;;;;25.79;38.10;93153.50;4969715;28;7849;-62
2023/03/06 03:31:11;;;;;;;;;;;;;;;25.80;38.70;93157.72;4972143;28;7336;-62
2023/03/06 03:33:47;;;;;;;;;;;;;;;25.76;38.79;93151.81;4959638;28;7056;-61
2023/03/06 03:36:17;;;;;;;;;;;;;;;25.81;38.00;93158.44;4979779;28;7144;-62
2023/03/06 03:38:47;;;;;;;;;;;;;;;25.79;37.95;93161.75;4971663;28;9119;-62
2023/03/06 03:41:14;;;;;;;;;;;;;;;25.78;38.13;93157.50;4962984;28;8785;-62
2023/03/06 03:43:44;;;;;;;;;;;;;;;25.79;38.48;93167.25;4970306;28;7502;-62
2023/03/06 03:46:12;;;;;;;;;;;;;;;25.79;38.36;93161.00;4961587;28;6877;-62
2023/03/06 03:48:41;;;;;;;;;;;;;;;25.78;38.14;93154.75;4978635;28;7681;-63
2023/03/06 03:51:19;;;;;;;;;;;;;;;25.78;38.17;93154.75;4965875;28;7117;-60
2023/03/06 03:54:00;;;;;;;;;;;;;;;25.77;38.38;93147.03;4970438;28;7279;-62
2023/03/06 03:56:40;;;;;;;;;;;;;;;25.78;38.63;93149.25;4969872;28;9480;-62
2023/03/06 03:59:07;;;;;;;;;;;;;;;25.79;38.58;93150.75;4969419;28;8184;-62
2023/03/06 04:02:04;;;;;;;;;;;;;;;25.78;37.80;93151.25;4965839;28;9163;-62
2023/03/06 04:04:34;;;;;;;;;;;;;;;25.78;38.12;93154.75;4898242;29;7021;-62
2023/03/06 04:07:00;;;;;;;;;;;;;;;25.78;37.92;93148.50;4904081;29;9026;-63
2023/03/06 04:09:41;;;;;;;;;;;;;;;25.76;38.39;93146.31;4929337;29;9461;-62
2023/03/06 04:12:15;;;;;;;;;;;;;;;25.76;38.51;93151.81;4907782;29;7040;-63
2023/03/06 04:14:54;;;;;;;;;;;;;;;25.75;38.02;93144.81;4909054;29;9359;-61
2023/03/06 04:17:38;;;;;;;;;;;;;;;25.77;38.46;93147.78;4914040;29;7057;-61
2023/03/06 04:20:20;;;;;;;;;;;;;;;25.76;38.28;93149.06;4906374;29;7082;-61
2023/03/06 04:22:50;;;;;;;;;;;;;;;25.77;38.69;93147.03;4913965;29;9821;-61
2023/03/06 04:25:46;;;;;;;;;;;;;;;25.76;38.73;93157.31;4905062;29;7033;-61
2023/03/06 04:28:14;;;;;;;;;;;;;;;25.75;37.83;93155.13;4891337;29;7239;-61
2023/03/06 04:30:40;;;;;;;;;;;;;;;25.75;38.66;93147.56;4877876;29;9121;-61
2023/03/06 04:33:07;;;;;;;;;;;;;;;25.74;37.83;93140.59;4885363;29;7159;-60
2023/03/06 04:35:36;;;;;;;;;;;;;;;25.74;38.52;93142.59;4895326;29;9335;-60
2023/03/06 04:38:03;;;;;;;;;;;;;;;25.75;38.53;93135.84;4871927;29;9390;-60
2023/03/06 04:40:32;;;;;;;;;;;;;;;25.73;38.30;93147.38;4890322;29;9184;-60
2023/03/06 04:43:07;;;;;;;;;;;;;;;25.73;37.74;93144.63;4952992;28;7247;-61
2023/03/06 04:45:35;;;;;;;;;;;;;;;25.72;38.34;93142.41;4933602;28;9484;-61
2023/03/06 04:48:04;;;;;;;;;;;;;;;25.73;38.20;93136.34;4952511;28;9116;-60
2023/03/06 04:50:54;;;;;;;;;;;;;;;25.73;38.75;93136.34;4954398;28;7204;-61
2023/03/06 04:53:20;;;;;;;;;;;;;;;25.72;37.85;93134.91;4939324;28;7238;-61
2023/03/06 04:55:57;;;;;;;;;;;;;;;25.70;38.43;93129.19;4938988;28;7519;-61
2023/03/06 04:58:36;;;;;;;;;;;;;;;25.70;38.59;93131.22;4941243;28;7176;-61
2023/03/06 05:01:02;;;;;;;;;;;;;;;25.71;38.17;93127.91;4938980;28;7361;-60
2023/03/06 05:03:29;;;;;;;;;;;;;;;25.71;38.36;93127.91;4934803;28;9168;-60
2023/03/06 05:05:57;;;;;;;;;;;;;;;25.70;38.46;93126.44;4984552;28;7220;-60
2023/03/06 05:08:23;;;;;;;;;;;;;;;25.70;38.19;93126.44;4962215;28;8746;-61
2023/03/06 05:10:56;;;;;;;;;;;;;;;25.70;38.03;93128.44;4970741;28;10023;-61
2023/03/06 05:13:22;;;;;;;;;;;;;;;25.70;38.49;93133.97;4968482;28;7069;-60
2023/03/06 05:16:37;;;;;;;;;;;;;;;25.69;38.33;93135.97;4973150;28;8466;-60
2023/03/06 05:19:08;;;;;;;;;;;;;;;25.70;37.67;93128.44;4965448;28;9116;-60
2023/03/06 05:21:47;;;;;;;;;;;;;;;25.73;38.40;93130.13;4959648;28;9898;-60
2023/03/06 05:24:13;;;;;;;;;;;;;;;25.71;37.82;93130.66;4954963;28;9343;-60
2023/03/06 05:27:04;;;;;;;;;;;;;;;25.72;38.05;93132.16;4959728;28;8970;-60
2023/03/06 05:29:32;;;;;;;;;;;;;;;25.68;37.92;93123.50;4949786;28;7276;-60
2023/03/06 05:31:59;;;;;;;;;;;;;;;25.71;38.04;93127.91;4940909;28;9417;-60
2023/03/06 05:34:28;;;;;;;;;;;;;;;25.70;38.33;93129.19;4961518;28;7258;-61
2023/03/06 05:37:05;;;;;;;;;;;;;;;25.71;42.67;93130.66;4943950;28;9228;-61
2023/03/06 05:40:00;;;;;;;;;;;;;;;25.82;40.22;93135.88;4967764;28;9045;-60
2023/03/06 05:42:29;;;;;;;;;;;;;;;25.84;40.37;93138.06;4955013;28;7040;-60
2023/03/06 05:44:55;;;;;;;;;;;;;;;25.84;39.43;93132.56;4946797;28;9882;-60
2023/03/06 05:47:59;;;;;;;;;;;;;;;25.82;39.10;93129.63;4954521;28;8821;-60
2023/03/06 05:50:40;;;;;;;;;;;;;;;25.80;39.04;93134.94;4943968;28;8781;-61
2023/03/06 05:53:21;;;;;;;;;;;;;;;25.78;39.56;93135.47;4932666;29;7331;-61
2023/03/06 05:56:06;;;;;;;;;;;;;;;25.77;39.26;93142.28;4916230;29;7043;-61
2023/03/06 05:58:35;;;;;;;;;;;;;;;25.77;39.78;93144.28;4939517;28;7077;-60
2023/03/06 06:01:16;;;;;;;;;;;;;;;25.79;40.05;93145.22;4931053;28;9335;-60
2023/03/06 06:03:45;;;;;;;;;;;;;;;25.85;39.36;93150.56;4911077;29;9121;-60
2023/03/06 06:06:17;;;;;;;;;;;;;;;25.82;39.63;93149.63;4910235;29;8668;-61
2023/03/06 06:08:52;;;;;;;;;;;;;;;25.83;40.34;93153.88;4901210;29;8937;-60
2023/03/06 06:11:30;;;;;;;;;;;;;;;25.86;39.60;93165.84;4926685;28;7296;-60
2023/03/06 06:14:02;;;;;;;;;;;;;;;25.80;39.28;93157.72;4927687;29;7290;-60
2023/03/06 06:16:44;;;;;;;;;;;;;;;25.77;39.02;93158.81;4930414;28;7018;-60
2023/03/06 06:19:42;;;;;;;;;;;;;;;25.81;40.16;93163.97;4907366;29;6857;-60
2023/03/06 06:22:40;;;;;;;;;;;;;;;25.81;40.06;93164.72;4935990;28;7467;-60
2023/03/06 06:25:09;;;;;;;;;;;;;;;25.83;39.26;93172.41;4912940;29;9082;-60
2023/03/06 06:27:36;;;;;;;;;;;;;;;25.86;39.17;93168.59;4908698;29;7293;-60
2023/03/06 06:30:19;;;;;;;;;;;;;;;25.87;38.93;93164.53;4909212;29;7204;-60
2023/03/06 06:33:17;;;;;;;;;;;;;;;25.86;39.00;93174.09;4913258;29;7043;-61
2023/03/06 06:36:04;;;;;;;;;;;;;;;25.82;39.12;93176.44;4894800;29;7355;-60
2023/03/06 06:38:54;;;;;;;;;;;;;;;25.80;38.96;93188.00;4887238;29;7122;-60
2023/03/06 06:41:24;;;;;;;;;;;;;;;25.77;38.43;93189.09;4883461;29;7066;-60
2023/03/06 06:43:52;;;;;;;;;;;;;;;25.75;38.63;93188.16;4900016;29;9465;-61
2023/03/06 06:46:21;;;;;;;;;;;;;;;25.73;39.42;93193.47;4915256;29;9018;-60
2023/03/06 06:48:54;;;;;;;;;;;;;;;25.71;39.11;93198.78;4890852;29;7242;-61
2023/03/06 06:51:21;;;;;;;;;;;;;;;25.72;39.09;93200.25;4892199;29;9117;-61
2023/03/06 06:53:50;;;;;;;;;;;;;;;25.76;39.58;93206.16;4875515;29;7357;-60
2023/03/06 06:56:17;;;;;;;;;;;;;;;25.75;38.80;93204.69;4893584;29;8687;-61
2023/03/06 06:58:43;;;;;;;;;;;;;;;25.74;38.58;93214.97;4893465;29;7040;-60
2023/03/06 07:01:12;;;;;;;;;;;;;;;25.71;38.66;93210.53;4890521;29;8901;-62
2023/03/06 07:03:40;;;;;;;;;;;;;;;25.72;38.65;93205.75;4923221;29;9376;-61
2023/03/06 07:06:13;;;;;;;;;;;;;;;25.75;38.92;93216.41;4920657;29;9029;-61
2023/03/06 07:08:40;;;;;;;;;;;;;;;25.76;38.29;93214.41;4907622;29;9041;-60
2023/03/06 07:11:25;;;;;;;;;;;;;;;25.72;38.53;93217.53;4940473;28;9028;-61
2023/03/06 07:13:51;;;;;;;;;;;;;;;25.71;38.84;93213.28;4964350;28;7035;-61
2023/03/06 07:16:18;;;;;;;;;;;;;;;25.71;38.54;93209.81;4967993;28;7050;-61
2023/03/06 07:18:45;;;;;;;;;;;;;;;25.70;38.99;93222.09;4965221;28;9051;-61
2023/03/06 07:21:17;;;;;;;;;;;;;;;25.69;38.62;93224.09;4970132;28;6869;-60
2023/03/06 07:23:48;;;;;;;;;;;;;;;25.70;38.87;93233.84;4972200;28;8968;-61
2023/03/06 07:26:16;;;;;;;;;;;;;;;25.71;38.77;93227.03;4960980;28;8994;-60
2023/03/06 07:28:44;;;;;;;;;;;;;;;25.71;39.04;93227.03;4969961;28;7915;-61
2023/03/06 07:31:10;;;;;;;;;;;;;;;25.69;38.54;93217.84;4960615;28;7049;-61
2023/03/06 07:33:38;;;;;;;;;;;;;;;25.69;39.25;93228.84;4966768;28;9108;-60
2023/03/06 07:36:08;;;;;;;;;;;;;;;25.69;38.92;93223.34;4998209;28;7025;-60
2023/03/06 07:38:44;;;;;;;;;;;;;;;25.69;38.48;93229.59;4967719;28;8786;-60
2023/03/06 07:41:15;;;;;;;;;;;;;;;25.68;38.79;93228.13;4960650;28;9083;-61
2023/03/06 07:43:46;;;;;;;;;;;;;;;25.68;38.67;93230.91;4999032;28;7130;-61
2023/03/06 07:46:15;;;;;;;;;;;;;;;25.67;39.20;93229.41;4972012;28;7113;-61
2023/03/06 07:48:44;;;;;;;;;;;;;;;25.67;38.92;93226.66;4977914;28;9021;-61
2023/03/06 07:51:17;;;;;;;;;;;;;;;25.67;38.82;93226.66;4985068;28;7054;-60
2023/03/06 07:53:51;;;;;;;;;;;;;;;25.66;38.47;93222.44;4972189;28;9797;-60
2023/03/06 07:56:18;;;;;;;;;;;;;;;25.71;38.94;93229.81;4972052;28;8761;-62
2023/03/06 07:58:46;;;;;;;;;;;;;;;25.74;39.09;93231.47;4969474;28;7100;-61
2023/03/06 08:01:23;;;;;;;;;;;;;;;25.77;38.65;93235.94;4961438;28;8286;-61
2023/03/06 08:03:59;;;;;;;;;;;;;;;25.77;38.45;93238.69;4970425;28;7220;-61
2023/03/06 08:06:27;;;;;;;;;;;;;;;25.75;38.88;93232.94;4971994;28;7054;-61
2023/03/06 08:08:55;;;;;;;;;;;;;;;25.75;38.59;93227.44;4963201;28;7654;-62
2023/03/06 08:11:26;;;;;;;;;;;;;;;25.73;38.25;93221.72;4967451;28;8728;-61
2023/03/06 08:14:03;;;;;;;;;;;;;;;25.73;38.89;93224.50;4964559;28;9336;-61
2023/03/06 08:16:30;;;;;;;;;;;;;;;25.73;38.93;93234.78;4971972;28;9868;-61
2023/03/06 08:18:59;;;;;;;;;;;;;;;25.71;38.95;93234.59;4974351;28;7236;-61
2023/03/06 08:21:33;;;;;;;;;;;;;;;25.71;38.66;93240.81;4972043;28;7192;-61
2023/03/06 08:24:01;;;;;;;;;;;;;;;25.70;39.19;93242.09;4975506;28;7975;-61
2023/03/06 08:26:32;;;;;;;;;;;;;;;25.70;39.04;93242.09;4979339;28;9039;-61
2023/03/06 08:29:10;;;;;;;;;;;;;;;25.70;38.43;93236.59;4975637;28;9392;-61
2023/03/06 08:31:45;;;;;;;;;;;;;;;25.67;38.56;93232.16;4972752;28;7044;-62
2023/03/06 08:34:20;;;;;;;;;;;;;;;25.69;39.08;93240.63;4974688;28;7218;-62
2023/03/06 08:36:47;;;;;;;;;;;;;;;25.68;38.65;93238.41;4981246;28;7120;-61
2023/03/06 08:39:16;;;;;;;;;;;;;;;25.69;39.05;93245.38;4998813;28;7043;-61
2023/03/06 08:42:01;;;;;;;;;;;;;;;25.69;38.75;93251.63;4973586;28;9027;-61
2023/03/06 08:44:27;;;;;;;;;;;;;;;25.68;38.26;93250.16;4976419;28;9018;-62
2023/03/06 08:47:03;;;;;;;;;;;;;;;25.69;38.51;93256.41;4967059;28;9422;-62
2023/03/06 08:49:30;;;;;;;;;;;;;;;25.68;39.47;93244.66;4970579;28;7271;-61
2023/03/06 08:51:56;;;;;;;;;;;;;;;25.69;39.18;93250.88;4969269;28;9190;-61
2023/03/06 08:54:22;;;;;;;;;;;;;;;25.68;38.40;93250.16;4969339;28;7616;-61
2023/03/06 08:57:00;;;;;;;;;;;;;;;25.63;39.04;93245.53;4973578;28;9099;-61
2023/03/06 08:59:35;;;;;;;;;;;;;;;25.66;39.06;93249.22;4976796;28;9361;-61
2023/03/06 09:02:32;;;;;;;;;;;;;;;25.64;38.65;93252.53;4978501;28;7242;-61
2023/03/06 09:05:27;;;;;;;;;;;;;;;25.65;38.49;93251.25;4930414;28;8802;-62
2023/03/06 09:08:07;;;;;;;;;;;;;;;25.65;39.20;93259.50;4877695;29;7444;-62
2023/03/06 09:11:13;;;;;;;;;;;;;;;25.65;39.06;93254.00;4884819;29;8877;-61
2023/03/06 09:13:48;;;;;;;;;;;;;;;25.66;39.01;93254.75;4841943;29;9050;-61
2023/03/06 09:16:28;;;;;;;;;;;;;;;25.65;38.49;93262.25;4825468;29;7046;-61
2023/03/06 09:19:31;;;;;;;;;;;;;;;25.64;38.49;93260.03;4841833;29;8762;-62
2023/03/06 09:21:59;;;;;;;;;;;;;;;25.63;39.16;93258.56;4824881;29;7261;-62
2023/03/06 09:24:25;;;;;;;;;;;;;;;25.63;38.99;93264.81;4833374;29;7212;-63
2023/03/06 09:26:51;;;;;;;;;;;;;;;25.63;39.17;93261.31;4840416;29;7098;-62
2023/03/06 09:29:17;;;;;;;;;;;;;;;25.65;38.71;93267.00;4837934;29;9010;-62
2023/03/06 09:31:44;;;;;;;;;;;;;;;25.64;38.79;93258.03;4838407;29;7244;-62
2023/03/06 09:34:12;;;;;;;;;;;;;;;25.65;38.94;93261.50;4826803;29;7425;-62
2023/03/06 09:36:48;;;;;;;;;;;;;;;25.66;39.01;93258.22;4840161;29;9033;-62
2023/03/06 09:39:34;;;;;;;;;;;;;;;25.63;38.84;93259.31;4826023;29;7029;-62
2023/03/06 09:42:23;;;;;;;;;;;;;;;25.66;39.17;93263.00;4825276;29;8256;-61
2023/03/06 09:45:00;;;;;;;;;;;;;;;25.65;39.47;93256.75;4869145;29;9049;-62
2023/03/06 09:47:48;;;;;;;;;;;;;;;25.66;39.40;93263.75;4887995;29;8439;-62
2023/03/06 09:50:32;;;;;;;;;;;;;;;25.67;38.98;93267.22;4881921;29;9004;-61
2023/03/06 09:53:23;;;;;;;;;;;;;;;25.68;39.06;93261.19;4870937;29;7622;-62
2023/03/06 09:56:04;;;;;;;;;;;;;;;25.67;38.75;93259.69;4946853;28;7379;-63
2023/03/06 09:58:43;;;;;;;;;;;;;;;25.66;38.66;93257.50;4977094;28;9046;-62
2023/03/06 10:01:20;;;;;;;;;;;;;;;25.67;38.56;93258.94;4962182;28;6882;-61
2023/03/06 10:04:05;;;;;;;;;;;;;;;25.68;38.74;93255.69;4966780;28;7225;-61
2023/03/06 10:06:53;;;;;;;;;;;;;;;25.68;38.73;93258.44;4973475;28;8597;-61
2023/03/06 10:09:26;;;;;;;;;;;;;;;25.67;39.31;93254.19;4970707;28;7039;-61
2023/03/06 10:12:17;;;;;;;;;;;;;;;25.69;38.60;93250.88;4966668;28;8693;-61
2023/03/06 10:15:14;;;;;;;;;;;;;;;25.69;38.59;93245.38;4998502;28;9061;-61
2023/03/06 10:17:55;;;;;;;;;;;;;;;25.66;38.47;93247.22;4978621;28;7235;-61
2023/03/06 10:20:42;;;;;;;;;;;;;;;25.69;38.30;93253.63;4971533;28;8795;-61
2023/03/06 10:23:24;;;;;;;;;;;;;;;25.71;38.23;93251.81;4954807;28;7130;-62
2023/03/06 10:26:32;;;;;;;;;;;;;;;25.71;38.20;93248.38;4972944;28;7060;-61
2023/03/06 10:29:41;;;;;;;;;;;;;;;25.67;38.82;93234.91;4969340;28;7487;-61
2023/03/06 10:32:17;;;;;;;;;;;;;;;25.70;38.90;93238.59;4945787;28;7547;-61
2023/03/06 10:34:59;;;;;;;;;;;;;;;25.70;38.58;93244.13;4948017;28;9046;-61
2023/03/06 10:37:29;;;;;;;;;;;;;;;25.70;38.64;93242.09;4944179;28;9031;-61
2023/03/06 10:40:05;;;;;;;;;;;;;;;25.71;38.98;93237.34;4952520;28;8787;-61
2023/03/06 10:42:31;;;;;;;;;;;;;;;25.72;38.78;93234.03;4964409;28;7279;-61
2023/03/06 10:45:12;;;;;;;;;;;;;;;25.70;38.18;93233.84;4950282;28;7137;-61
2023/03/06 10:47:39;;;;;;;;;;;;;;;25.72;39.22;93233.31;4947520;28;7568;-61
2023/03/06 10:50:23;;;;;;;;;;;;;;;25.72;38.88;93233.31;4944426;28;8499;-61
2023/03/06 10:53:15;;;;;;;;;;;;;;;25.73;38.14;93232.75;4945739;28;7233;-61
2023/03/06 10:55:59;;;;;;;;;;;;;;;25.73;38.92;93241.00;4943505;28;9038;-61
2023/03/06 10:58:26;;;;;;;;;;;;;;;25.74;38.31;93239.00;4957519;28;8739;-61
2023/03/06 11:01:03;;;;;;;;;;;;;;;25.80;38.55;93247.84;4946227;28;7936;-61
2023/03/06 11:03:30;;;;;;;;;;;;;;;25.80;38.35;93239.59;4951245;28;7042;-61
2023/03/06 11:06:33;;;;;;;;;;;;;;;25.84;38.24;93234.47;4946794;28;9283;-61
2023/03/06 11:09:20;;;;;;;;;;;;;;;25.85;37.94;93239.47;4947835;28;9297;-61
2023/03/06 11:11:48;;;;;;;;;;;;;;;25.86;38.75;93237.47;4996331;28;7127;-61
2023/03/06 11:14:26;;;;;;;;;;;;;;;25.88;38.27;93240.41;4965640;28;7031;-61
2023/03/06 11:17:30;;;;;;;;;;;;;;;25.83;38.70;93239.28;4963781;28;7208;-61
2023/03/06 11:20:19;;;;;;;;;;;;;;;25.88;37.80;93238.38;4966344;28;7321;-61
2023/03/06 11:23:04;;;;;;;;;;;;;;;25.86;37.91;93229.91;4966999;28;9079;-61
2023/03/06 11:25:58;;;;;;;;;;;;;;;25.93;38.36;93232.00;4965104;28;7132;-61
2023/03/06 11:28:38;;;;;;;;;;;;;;;25.94;38.80;93229.97;4965743;28;7328;-61
2023/03/06 11:31:14;;;;;;;;;;;;;;;25.90;38.17;93238.56;4983674;28;7122;-61
2023/03/06 11:34:18;;;;;;;;;;;;;;;25.90;38.39;93227.53;4993570;28;9056;-61
2023/03/06 11:36:59;;;;;;;;;;;;;;;25.92;38.63;93225.00;4985063;28;7019;-61
2023/03/06 11:39:59;;;;;;;;;;;;;;;25.92;38.22;93219.50;4962162;28;7204;-61
2023/03/06 11:42:33;;;;;;;;;;;;;;;25.93;37.69;93204.44;4989551;28;7353;-61
2023/03/06 11:45:01;;;;;;;;;;;;;;;25.95;38.80;93204.63;4973906;28;7025;-60
2023/03/06 11:47:35;;;;;;;;;;;;;;;25.96;37.74;93203.38;4973746;28;7241;-61
2023/03/06 11:50:34;;;;;;;;;;;;;;;25.97;38.37;93207.59;4973945;28;9180;-61
2023/03/06 11:53:10;;;;;;;;;;;;;;;25.98;37.37;93203.56;4976081;28;9121;-60
2023/03/06 11:56:02;;;;;;;;;;;;;;;26.00;38.12;93197.50;4975829;28;6936;-60
2023/03/06 11:59:03;;;;;;;;;;;;;;;26.00;37.75;93192.72;4972350;28;8607;-61
2023/03/06 12:01:40;;;;;;;;;;;;;;;25.97;38.69;93193.81;4991854;28;8658;-61
2023/03/06 12:04:12;;;;;;;;;;;;;;;25.97;38.35;93187.56;4981257;28;7281;-61
2023/03/06 12:07:15;;;;;;;;;;;;;;;25.99;38.13;93187.78;4987781;28;7036;-61
2023/03/06 12:10:15;;;;;;;;;;;;;;;26.04;38.13;93176.59;4992828;28;8562;-61
2023/03/06 12:13:13;;;;;;;;;;;;;;;26.06;37.72;93185.03;4972728;28;8724;-61
2023/03/06 12:16:14;;;;;;;;;;;;;;;26.08;37.83;93176.22;4991015;28;7220;-61
2023/03/06 12:19:08;;;;;;;;;;;;;;;26.05;38.76;93182.84;4976506;28;8729;-61
2023/03/06 12:22:15;;;;;;;;;;;;;;;26.07;38.11;93167.25;4976319;28;8791;-61
2023/03/06 12:25:19;;;;;;;;;;;;;;;26.05;37.59;93175.31;4980483;28;8990;-61
2023/03/06 12:27:53;;;;;;;;;;;;;;;26.07;37.95;93181.03;4958202;28;9019;-61
2023/03/06 12:30:46;;;;;;;;;;;;;;;26.08;37.39;93170.72;4988637;28;7487;-61
2023/03/06 12:33:27;;;;;;;;;;;;;;;26.11;37.54;93172.44;4937442;28;9097;-60
2023/03/06 12:36:10;;;;;;;;;;;;;;;26.13;37.92;93167.84;4954545;28;9503;-61
2023/03/06 12:39:03;;;;;;;;;;;;;;;26.16;38.07;93160.53;4944005;28;6923;-61
2023/03/06 12:42:06;;;;;;;;;;;;;;;26.20;37.51;93165.66;4932493;28;7201;-61
2023/03/06 12:45:14;;;;;;;;;;;;;;;26.18;37.56;93155.19;4879129;29;8525;-61
2023/03/06 12:48:00;;;;;;;;;;;;;;;26.17;38.06;93157.22;4884286;29;9090;-60
2023/03/06 12:50:35;;;;;;;;;;;;;;;26.15;38.29;93157.03;4868185;29;7073;-61
2023/03/06 12:53:30;;;;;;;;;;;;;;;26.16;38.07;93150.22;4864060;29;7283;-61
2023/03/06 12:56:12;;;;;;;;;;;;;;;26.21;38.04;93158.91;4864579;29;7267;-61
2023/03/06 12:59:01;;;;;;;;;;;;;;;26.20;38.04;93160.91;4882798;29;7121;-61
2023/03/06 13:02:06;;;;;;;;;;;;;;;26.22;38.41;93152.09;4844890;29;8999;-61
2023/03/06 13:04:59;;;;;;;;;;;;;;;26.22;38.50;93157.59;4839605;29;7266;-60
2023/03/06 13:07:43;;;;;;;;;;;;;;;26.19;37.70;93148.38;4842567;29;6865;-61
2023/03/06 13:10:24;;;;;;;;;;;;;;;26.22;37.54;93152.81;4861114;29;8747;-61
2023/03/06 13:13:22;;;;;;;;;;;;;;;26.19;38.45;93159.41;4879210;29;7058;-60
2023/03/06 13:16:14;;;;;;;;;;;;;;;26.19;38.26;93153.19;4893506;29;9481;-61
2023/03/06 13:18:42;;;;;;;;;;;;;;;26.20;37.88;93146.38;4888340;29;7284;-61
2023/03/06 13:21:46;;;;;;;;;;;;;;;26.22;37.58;93152.09;4971323;28;7106;-60
2023/03/06 13:24:33;;;;;;;;;;;;;;;26.20;38.14;93140.88;4957929;28;7406;-61
2023/03/06 13:27:10;;;;;;;;;;;;;;;26.20;38.20;93138.09;4970007;28;9035;-61
2023/03/06 13:29:36;;;;;;;;;;;;;;;26.20;37.74;93144.38;4955265;28;7149;-60
2023/03/06 13:32:02;;;;;;;;;;;;;;;26.22;38.00;93136.28;4967783;28;9394;-60
2023/03/06 13:34:31;;;;;;;;;;;;;;;26.22;38.18;93135.53;4960503;28;7301;-60
2023/03/06 13:37:12;;;;;;;;;;;;;;;26.19;37.20;93133.91;4946138;28;7013;-60
2023/03/06 13:40:03;;;;;;;;;;;;;;;26.23;38.16;93128.75;4970325;28;9030;-61
2023/03/06 13:42:57;;;;;;;;;;;;;;;26.20;37.51;93132.59;4958303;28;7032;-60
2023/03/06 13:45:52;;;;;;;;;;;;;;;26.23;37.95;93131.53;4949514;28;7035;-60